Flight Track Log - Related Links

Times and Time Zones

All times are in EDT time to prevent confusion due to time zone crossing. See the TAM3134 flight status page for this flight to view local times or setup timezone preferences in your user account.

Time Position Orientation Groundspeed Altitude Reporting Facility
EDT Latitude Longitude Course Direction KTS MPH feet Rate Location/Type
Mon 04:16:12 PM -23.6260 -46.6580 53° Northeast  Level FlightAware ADS-B
Mon 04:16:59 PM -23.6280 -46.6570 155° Southeast 685 Level FlightAware ADS-B
Mon 04:19:00 PM -23.5318 -46.4638 62° Northeast  Level Estimated
Mon 04:20:00 PM -23.4840 -46.3681 61° Northeast  Level Estimated
Mon 04:20:05 PM -23.6270 -46.6570 61° Northeast  Level FlightAware ADS-B
Mon 04:20:26 PM -23.6150 -46.6640 332° Northwest 154 177 2,900 4,528 Climbing FlightAware ADS-B
Mon 04:20:58 PM -23.5910 -46.6780 332° Northwest 184 212 4,000 2,105 Climbing FlightAware ADS-B
Mon 04:21:23 PM -23.5720 -46.6600 41° Northeast 223 257 4,900 1,862 Climbing FlightAware ADS-B
Mon 04:21:56 PM -23.5870 -46.6190 112° Southeast 267 307 5,800 1,220 Climbing FlightAware ADS-B
Mon 04:22:22 PM -23.6060 -46.5870 123° Southeast 291 335 6,100 1,167 Climbing FlightAware ADS-B
Mon 04:22:32 PM -23.6080 -46.5720 98° East 297 342 6,500 2,455 Climbing FlightAware ADS-B
Mon 04:23:06 PM -23.5990 -46.5230 79° East 300 345 7,900 2,419 Climbing FlightAware ADS-B
Mon 04:23:34 PM -23.5890 -46.4810 75° East 308 354 9,000 2,400 Climbing FlightAware ADS-B
Mon 04:23:46 PM -23.5850 -46.4620 77° East 314 361 9,500 1,622 Climbing FlightAware ADS-B
Mon 04:24:11 PM -23.5770 -46.4250 77° East 318 366 10,000 845 Climbing FlightAware ADS-B
Mon 04:24:57 PM -23.5600 -46.3510 76° East 323 372 10,500 1,364 Climbing FlightAware ADS-B
Mon 04:25:39 PM -23.5450 -46.2840 76° East 351 404 12,000 2,023 Climbing FlightAware ADS-B
Mon 04:26:23 PM -23.5270 -46.2020 77° East 384 442 13,400 2,143 Climbing FlightAware ADS-B
Mon 04:27:03 PM -23.5090 -46.1260 76° East 395 455 15,000 2,337 Climbing FlightAware ADS-B
Mon 04:27:58 PM -23.4840 -46.0210 75° East 406 467 17,100 2,274 Climbing FlightAware ADS-B
Mon 04:28:38 PM -23.4650 -45.9420 75° East 414 476 18,600 2,233 Climbing FlightAware ADS-B
Mon 04:29:24 PM -23.4300 -45.8540 67° East 422 486 20,300 1,976 Climbing FlightAware ADS-B
Mon 04:30:03 PM -23.3940 -45.7760 63° Northeast 437 503 21,400 1,929 Climbing FlightAware ADS-B
Mon 04:30:48 PM -23.3530 -45.6890 63° Northeast 438 504 23,000 1,835 Climbing FlightAware ADS-B
Mon 04:31:28 PM -23.3140 -45.6070 63° Northeast 457 526 24,000 1,650 Climbing FlightAware ADS-B
Mon 04:32:08 PM -23.2760 -45.5260 63° Northeast 464 534 25,200 1,694 Climbing FlightAware ADS-B
Mon 04:32:53 PM -23.2290 -45.4300 62° Northeast 469 540 26,400 1,733 Climbing FlightAware ADS-B
Mon 04:33:38 PM -23.1840 -45.3360 63° Northeast 469 540 27,800 1,835 Climbing FlightAware ADS-B
Mon 04:34:18 PM -23.1440 -45.2530 62° Northeast 471 542 29,000 1,650 Climbing FlightAware ADS-B
Mon 04:34:58 PM -23.1090 -45.1770 63° Northeast 477 549 30,000 1,800 Climbing FlightAware ADS-B
Mon 04:35:38 PM -23.0780 -45.0760 72° East 472 543 31,400 1,875 Climbing FlightAware ADS-B
Mon 04:36:18 PM -23.0540 -44.9850 74° East 470 541 32,500 1,116 Climbing FlightAware ADS-B
Mon 04:37:04 PM -23.0170 -44.8860 68° East 466 536 33,000 349 Climbing FlightAware ADS-B
Mon 04:37:44 PM -22.9840 -44.7980 68° East 466 536 33,000  Level FlightAware ADS-B
Mon 04:38:25 PM -22.9510 -44.7100 68° East 471 542 33,000  Level FlightAware ADS-B
Mon 04:39:10 PM -22.9170 -44.6190 68° East 468 539 33,000  Level FlightAware ADS-B
Mon 04:39:55 PM -22.8780 -44.5140 68° East 461 531 33,000  Level FlightAware ADS-B
Mon 04:40:35 PM -22.8470 -44.4310 68° East 466 536 33,000  Level FlightAware ADS-B
Mon 04:41:16 PM -22.8130 -44.3410 68° East 475 547 33,000  Level FlightAware ADS-B
Mon 04:41:56 PM -22.7790 -44.2480 68° East 476 548 33,000  Level FlightAware ADS-B
Mon 04:42:36 PM -22.7460 -44.1610 68° East 476 548 33,000  Level FlightAware ADS-B
Mon 04:43:25 PM -22.7090 -44.0630 68° East 476 548 33,000  Level FlightAware ADS-B
Mon 04:44:02 PM -22.6770 -43.9780 68° East 475 547 33,000  Level FlightAware ADS-B
Mon 04:44:44 PM -22.6410 -43.8840 67° East 475 547 33,000  Level FlightAware ADS-B
Mon 04:45:28 PM -22.6010 -43.7790 68° East 476 548 33,000  Level FlightAware ADS-B
Mon 04:46:12 PM -22.5630 -43.6840 67° East 474 545 33,000  Level FlightAware ADS-B
Mon 04:46:50 PM -22.5150 -43.6090 55° Northeast 473 544 33,000  Level FlightAware ADS-B
Mon 04:47:38 PM -22.4550 -43.5150 55° Northeast 474 545 33,000  Level FlightAware ADS-B
Mon 04:48:25 PM -22.4070 -43.4380 56° Northeast 475 547 33,000  Level FlightAware ADS-B
Mon 04:49:15 PM -22.3350 -43.3260 55° Northeast 473 544 33,000  Level FlightAware ADS-B
Mon 04:49:59 PM -22.2800 -43.2400 55° Northeast 471 542 33,000  Level FlightAware ADS-B
Mon 04:50:40 PM -22.2300 -43.1620 55° Northeast 470 541 33,000  Level FlightAware ADS-B
Mon 04:51:19 PM -22.1810 -43.0850 56° Northeast 470 541 33,000  Level FlightAware ADS-B
Mon 04:52:02 PM -22.1290 -43.0050 55° Northeast 471 542 33,000  Level FlightAware ADS-B
Mon 04:52:45 PM -22.0740 -42.9200 55° Northeast 470 541 33,000  Level FlightAware ADS-B
Mon 04:53:25 PM -22.0250 -42.8430 56° Northeast 472 543 33,000  Level FlightAware ADS-B
Mon 04:54:08 PM -21.9740 -42.7650 55° Northeast 473 544 33,000  Level FlightAware ADS-B
Mon 04:54:53 PM -21.9140 -42.6720 55° Northeast 474 545 33,000  Level FlightAware ADS-B
Mon 04:55:31 PM -21.8680 -42.6010 55° Northeast 476 548 33,000  Level FlightAware ADS-B
Mon 04:56:15 PM -21.8110 -42.5130 55° Northeast 474 545 33,000  Level FlightAware ADS-B
Mon 04:56:57 PM -21.7590 -42.4330 55° Northeast 473 544 33,000  Level FlightAware ADS-B
Mon 04:57:39 PM -21.7050 -42.3510 55° Northeast 474 545 33,000  Level FlightAware ADS-B
Mon 04:58:19 PM -21.6550 -42.2730 55° Northeast 475 547 33,000  Level FlightAware ADS-B
Mon 04:59:19 PM -21.5870 -42.1710 54° Northeast 473 544 33,000  Level FlightAware ADS-B
Mon 04:59:55 PM -21.5480 -42.1130 54° Northeast 473 544 33,000 -1,463 Level FlightAware ADS-B
Mon 05:00:41 PM -21.4780 -42.0020 56° Northeast 461 531 31,000 -2,512 Descending FlightAware ADS-B
Mon 05:01:21 PM -21.4290 -41.9280 55° Northeast 465 535 29,400 -2,163 Descending FlightAware ADS-B
Mon 05:02:07 PM -21.3720 -41.8420 55° Northeast 458 527 27,900 -1,953 Descending FlightAware ADS-B
Mon 05:02:47 PM -21.3220 -41.7660 55° Northeast 450 518 26,600 -987 Descending FlightAware ADS-B
Mon 05:03:26 PM -21.2830 -41.7060 55° Northeast 450 518 26,600 -1,407 Level FlightAware ADS-B
Mon 05:04:08 PM -21.2520 -41.6590 55° Northeast 436 502 24,700 -2,313 Descending FlightAware ADS-B
Mon 05:05:02 PM -21.1880 -41.5620 55° Northeast 424 488 22,900 -1,901 Descending FlightAware ADS-B
Mon 05:05:49 PM -21.1360 -41.4840 54° Northeast 416 479 21,500 -1,753 Descending FlightAware ADS-B
Mon 05:06:31 PM -21.0930 -41.4180 55° Northeast 409 471 20,300 -1,663 Descending FlightAware ADS-B
Mon 05:07:12 PM -21.0480 -41.3510 54° Northeast 400 460 19,200 -1,636 Descending FlightAware ADS-B
Mon 05:07:48 PM -21.0110 -41.2940 55° Northeast 394 453 18,200 -1,590 Descending FlightAware ADS-B
Mon 05:08:35 PM -20.9620 -41.2220 54° Northeast 382 440 17,000 -1,551 Descending FlightAware ADS-B
Mon 05:09:17 PM -20.9200 -41.1590 54° Northeast 376 433 15,900 -1,500 Descending FlightAware ADS-B
Mon 05:09:59 PM -20.8800 -41.0980 55° Northeast 370 426 14,900 -1,518 Descending FlightAware ADS-B
Mon 05:10:40 PM -20.8410 -41.0390 55° Northeast 364 419 13,800 -1,768 Descending FlightAware ADS-B
Mon 05:11:34 PM -20.7890 -40.9600 55° Northeast 365 420 12,100 -1,882 Descending FlightAware ADS-B
Mon 05:12:22 PM -20.7470 -40.8880 58° Northeast 358 412 10,600 -1,500 Descending FlightAware ADS-B
Mon 05:12:58 PM -20.7150 -40.8330 58° Northeast 336 387 10,000 -873 Descending FlightAware ADS-B
Mon 05:13:17 PM -20.7010 -40.8090 58° Northeast 322 371 9,800 -1,224 Descending FlightAware ADS-B
Mon 05:13:47 PM -20.6740 -40.7630 58° Northeast 312 359 9,000 -1,585 Descending FlightAware ADS-B
Mon 05:14:10 PM -20.6550 -40.7310 58° Northeast 307 353 8,400 -1,585 Descending FlightAware ADS-B
Mon 05:14:40 PM -20.6320 -40.6920 58° Northeast 300 345 7,600 -1,500 Descending FlightAware ADS-B
Mon 05:15:10 PM -20.6110 -40.6580 57° Northeast 297 342 6,900 -1,418 Descending FlightAware ADS-B
Mon 05:15:35 PM -20.5950 -40.6300 59° Northeast 294 338 6,300 -1,309 Descending FlightAware ADS-B
Mon 05:16:05 PM -20.5720 -40.5910 58° Northeast 296 341 5,700 -1,222 Descending FlightAware ADS-B
Mon 05:16:29 PM -20.5540 -40.5620 56° Northeast 286 329 5,200 -1,286 Descending FlightAware ADS-B
Mon 05:16:47 PM -20.5420 -40.5400 60° Northeast 280 322 4,800 -1,116 Descending FlightAware ADS-B
Mon 05:17:12 PM -20.5270 -40.5150 57° Northeast 275 316 4,400 -1,116 Descending FlightAware ADS-B
Mon 05:17:30 PM -20.5130 -40.4900 59° Northeast 271 312 4,000 -732 Descending FlightAware ADS-B
Mon 05:17:53 PM -20.4980 -40.4660 56° Northeast 247 284 3,900  Descending FlightAware ADS-B
Mon 05:18:22 PM -20.4820 -40.4390 58° Northeast 226 260 4,000  Climbing FlightAware ADS-B
Mon 05:18:35 PM -20.4750 -40.4290 53° Northeast 220 253 3,900 -563 Descending FlightAware ADS-B
Mon 05:18:54 PM -20.4610 -40.4200 31° Northeast 213 245 3,700 -273 Descending FlightAware ADS-B
Mon 05:19:19 PM -20.4400 -40.4070 30° Northeast 199 229 3,700  Level FlightAware ADS-B
Mon 05:19:50 PM -20.4170 -40.3920 31° Northeast 195 224 3,700 -300 Level FlightAware ADS-B
Mon 05:20:19 PM -20.3940 -40.3760 33° Northeast 185 213 3,400 -792 Descending FlightAware ADS-B
Mon 05:20:43 PM -20.3780 -40.3660 30° Northeast 182 209 3,000 -980 Descending FlightAware ADS-B
Mon 05:21:08 PM -20.3630 -40.3560 32° Northeast 169 194 2,600 -982 Descending FlightAware ADS-B
Mon 05:21:38 PM -20.3440 -40.3430 33° Northeast 149 171 2,100 -1,000 Descending FlightAware ADS-B
Mon 05:22:08 PM -20.3270 -40.3320 31° Northeast 124 143 1,600 -778 Descending FlightAware ADS-B
Mon 05:22:32 PM -20.3160 -40.3250 31° Northeast 121 139 1,400 -667 Descending FlightAware ADS-B
Mon 05:23:02 PM -20.3010 -40.3150 32° Northeast 121 139 1,000 -800 Descending FlightAware ADS-B
Mon 05:23:32 PM -20.2860 -40.3050 32° Northeast 119 137 600 -873 Descending FlightAware ADS-B
Mon 05:23:57 PM -20.2740 -40.2980 29° Northeast 118 136 200 -960 Descending FlightAware ADS-B
Mon 05:24:26 PM -20.2610 -40.2890 33° Northeast 117 135 -414 Descending FlightAware ADS-B
Mon 05:24:45 PM -20.2560 -40.2860 29° Northeast 111 128  Level FlightAware ADS-B
Mon 05:25:24 PM -20.2550 -40.2850 43° Northeast 111 128  Level FlightAware ADS-B
Mon 05:25:47 PM -20.2570 -40.2860 205° Southwest 111 128  Level FlightAware ADS-B
Mon 05:26:58 PM -20.2600 -40.2900 231° Southwest 111 128  Level FlightAware ADS-B
Mon 05:27:29 PM -20.2580 -40.2890 25° Northeast 111 128  Level FlightAware ADS-B
Mon 05:29:50 PM -20.2620 -40.2770 110° East 111 128  Level FlightAware ADS-B
Mon 05:30:31 PM -20.2580 -40.2890 290° West 111 128  Level FlightAware ADS-B
Mon 05:31:38 PM -20.2620 -40.2780 111° Southeast 111 128  Level FlightAware ADS-B
Mon 05:32:47 PM -20.2580 -40.2890 291° West 111 128  Level FlightAware ADS-B
Mon 05:33:44 PM -20.2620 -40.2770 110° East 111 128  Level FlightAware ADS-B
Mon 05:34:19 PM -20.2620 -40.2780 270° West 111 128  Level FlightAware ADS-B
Mon 05:34:45 PM -20.2580 -40.2890 291° West 111 128  Level FlightAware ADS-B
Mon 05:35:40 PM -20.2620 -40.2770 110° East 111 128  Level FlightAware ADS-B
Mon 05:38:00 PM -20.2581 -40.2864 294° West  Level Estimated
Mon 05:39:00 PM -20.2581 -40.2864 13° North  Level Estimated
Mon 05:40:00 PM -20.2581 -40.2864 13° North  Level Estimated
Mon 05:41:00 PM -20.2581 -40.2864 13° North  Level Estimated
Mon 05:42:00 PM -20.2581 -40.2864 13° North  Level Estimated
Mon 05:43:00 PM -20.2581 -40.2864 13° North  Level Estimated
Mon 05:44:00 PM -20.2581 -40.2864 13° North  Level Estimated
Mon 05:45:00 PM -20.2581 -40.2864 13° North  Level Estimated
Mon 05:46:00 PM -20.2581 -40.2864 13° North  Level Estimated
Mon 05:47:00 PM -20.2581 -40.2864 13° North  Level Estimated
Mon 05:48:00 PM -20.2581 -40.2864 13° North  Level Estimated
Mon 05:49:00 PM -20.2581 -40.2864 13° North  Level Estimated
Mon 05:50:00 PM -20.2581 -40.2864 13° North  Level Estimated
Mon 05:51:00 PM -20.2581 -40.2864 13° North  Level Estimated
Mon 05:52:00 PM -20.2581 -40.2864 13° North  Level Estimated
Mon 05:53:00 PM -20.2581 -40.2864 13° North  Level Estimated
Mon 05:54:00 PM -20.2581 -40.2864 13° North  Level Estimated

Login

Don't have an account? Register now (free) for customized features, flight alerts, and more!